sensor_id;sensor_type;location;lat;lon;timestamp;pressure;altitude;pressure_sealevel;temperature;humidity
51299;BME280;37382;45.192;9.790;2023-05-09T00:00:04;101484.84;;;19.64;100.00
51299;BME280;37382;45.192;9.790;2023-05-09T00:02:38;101470.56;;;19.55;100.00
51299;BME280;37382;45.192;9.790;2023-05-09T00:05:06;101469.94;;;19.30;100.00
51299;BME280;37382;45.192;9.790;2023-05-09T00:07:36;101471.00;;;19.29;100.00
51299;BME280;37382;45.192;9.790;2023-05-09T00:10:04;101470.91;;;19.35;100.00
51299;BME280;37382;45.192;9.790;2023-05-09T00:12:32;101478.09;;;19.36;100.00
51299;BME280;37382;45.192;9.790;2023-05-09T00:14:59;101475.47;;;19.42;100.00
51299;BME280;37382;45.192;9.790;2023-05-09T00:17:27;101474.72;;;19.23;100.00
51299;BME280;37382;45.192;9.790;2023-05-09T00:19:55;101478.69;;;19.50;100.00
51299;BME280;37382;45.192;9.790;2023-05-09T00:22:22;101473.41;;;19.25;100.00
51299;BME280;37382;45.192;9.790;2023-05-09T00:24:49;101471.97;;;19.23;100.00
51299;BME280;37382;45.192;9.790;2023-05-09T00:27:17;101475.44;;;19.18;100.00
51299;BME280;37382;45.192;9.790;2023-05-09T00:29:44;101467.06;;;19.36;100.00
51299;BME280;37382;45.192;9.790;2023-05-09T00:32:12;101469.69;;;19.19;100.00
51299;BME280;37382;45.192;9.790;2023-05-09T00:34:39;101459.34;;;19.15;100.00
51299;BME280;37382;45.192;9.790;2023-05-09T00:37:07;101474.22;;;19.14;100.00
51299;BME280;37382;45.192;9.790;2023-05-09T00:39:34;101471.53;;;18.95;100.00
51299;BME280;37382;45.192;9.790;2023-05-09T00:42:01;101462.00;;;19.10;100.00
51299;BME280;37382;45.192;9.790;2023-05-09T00:44:30;101465.81;;;19.09;100.00
51299;BME280;37382;45.192;9.790;2023-05-09T00:46:57;101460.66;;;19.12;100.00
51299;BME280;37382;45.192;9.790;2023-05-09T00:49:24;101459.81;;;19.00;100.00
51299;BME280;37382;45.192;9.790;2023-05-09T00:51:53;101461.66;;;19.30;100.00
51299;BME280;37382;45.192;9.790;2023-05-09T00:54:21;101465.81;;;19.09;100.00
51299;BME280;37382;45.192;9.790;2023-05-09T00:56:50;101463.81;;;19.28;100.00
51299;BME280;37382;45.192;9.790;2023-05-09T00:59:18;101456.56;;;19.03;100.00
51299;BME280;37382;45.192;9.790;2023-05-09T01:01:45;101459.00;;;19.11;100.00
51299;BME280;37382;45.192;9.790;2023-05-09T01:04:13;101462.47;;;19.18;100.00
51299;BME280;37382;45.192;9.790;2023-05-09T01:09:52;101462.94;;;19.15;100.00
51299;BME280;37382;45.192;9.790;2023-05-09T01:18:21;101458.78;;;18.82;100.00
51299;BME280;37382;45.192;9.790;2023-05-09T01:20:57;101448.81;;;19.12;100.00
51299;BME280;37382;45.192;9.790;2023-05-09T01:29:43;101443.09;;;18.53;100.00
51299;BME280;37382;45.192;9.790;2023-05-09T01:32:16;101446.88;;;19.00;100.00
51299;BME280;37382;45.192;9.790;2023-05-09T01:34:44;101450.81;;;18.93;100.00
51299;BME280;37382;45.192;9.790;2023-05-09T01:37:14;101454.56;;;19.22;100.00
51299;BME280;37382;45.192;9.790;2023-05-09T01:39:46;101457.91;;;19.00;100.00
51299;BME280;37382;45.192;9.790;2023-05-09T01:42:18;101453.69;;;18.98;100.00
51299;BME280;37382;45.192;9.790;2023-05-09T01:44:47;101444.72;;;19.02;100.00
51299;BME280;37382;45.192;9.790;2023-05-09T01:47:17;101450.22;;;19.02;100.00
51299;BME280;37382;45.192;9.790;2023-05-09T01:49:46;101442.97;;;19.20;100.00
51299;BME280;37382;45.192;9.790;2023-05-09T01:52:16;101444.84;;;19.19;100.00
51299;BME280;37382;45.192;9.790;2023-05-09T01:54:45;101441.63;;;19.34;100.00
51299;BME280;37382;45.192;9.790;2023-05-09T01:57:14;101441.59;;;19.11;100.00
51299;BME280;37382;45.192;9.790;2023-05-09T01:59:43;101434.19;;;19.11;100.00
51299;BME280;37382;45.192;9.790;2023-05-09T02:02:12;101441.69;;;18.92;100.00
51299;BME280;37382;45.192;9.790;2023-05-09T02:04:42;101448.31;;;18.91;100.00
51299;BME280;37382;45.192;9.790;2023-05-09T02:07:10;101441.97;;;19.14;100.00
51299;BME280;37382;45.192;9.790;2023-05-09T02:09:38;101449.50;;;18.95;100.00
51299;BME280;37382;45.192;9.790;2023-05-09T02:12:07;101443.03;;;19.01;100.00
51299;BME280;37382;45.192;9.790;2023-05-09T02:14:34;101447.59;;;19.08;100.00
51299;BME280;37382;45.192;9.790;2023-05-09T02:17:02;101444.84;;;19.19;100.00
51299;BME280;37382;45.192;9.790;2023-05-09T02:19:35;101437.78;;;19.12;100.00
51299;BME280;37382;45.192;9.790;2023-05-09T02:22:02;101444.84;;;19.08;100.00
51299;BME280;37382;45.192;9.790;2023-05-09T02:24:32;101446.63;;;19.02;100.00
51299;BME280;37382;45.192;9.790;2023-05-09T02:27:02;101443.03;;;18.90;100.00
51299;BME280;37382;45.192;9.790;2023-05-09T02:29:36;101446.88;;;19.00;100.00
51299;BME280;37382;45.192;9.790;2023-05-09T02:32:11;101446.13;;;18.93;100.00
51299;BME280;37382;45.192;9.790;2023-05-09T02:34:40;101446.00;;;18.88;100.00
51299;BME280;37382;45.192;9.790;2023-05-09T02:37:09;101452.47;;;18.94;100.00
51299;BME280;37382;45.192;9.790;2023-05-09T02:39:37;101447.47;;;19.02;100.00
51299;BME280;37382;45.192;9.790;2023-05-09T02:42:07;101448.81;;;19.12;100.00
51299;BME280;37382;45.192;9.790;2023-05-09T02:44:35;101450.34;;;19.08;100.00
51299;BME280;37382;45.192;9.790;2023-05-09T02:47:03;101438.13;;;19.04;100.00
51299;BME280;37382;45.192;9.790;2023-05-09T02:49:31;101435.22;;;18.87;100.00
51299;BME280;37382;45.192;9.790;2023-05-09T02:52:01;101434.06;;;18.76;100.00
51299;BME280;37382;45.192;9.790;2023-05-09T02:54:28;101437.97;;;18.56;100.00
51299;BME280;37382;45.192;9.790;2023-05-09T02:56:56;101443.34;;;18.51;100.00
51299;BME280;37382;45.192;9.790;2023-05-09T02:59:25;101447.53;;;18.54;100.00
51299;BME280;37382;45.192;9.790;2023-05-09T03:01:54;101441.56;;;18.57;100.00
51299;BME280;37382;45.192;9.790;2023-05-09T03:04:22;101435.78;;;18.46;100.00
51299;BME280;37382;45.192;9.790;2023-05-09T03:06:50;101431.84;;;18.54;100.00
51299;BME280;37382;45.192;9.790;2023-05-09T03:09:18;101433.34;;;18.38;100.00
51299;BME280;37382;45.192;9.790;2023-05-09T03:11:46;101434.84;;;18.53;100.00
51299;BME280;37382;45.192;9.790;2023-05-09T03:14:14;101431.91;;;18.36;100.00
51299;BME280;37382;45.192;9.790;2023-05-09T03:16:41;101426.09;;;18.44;100.00
51299;BME280;37382;45.192;9.790;2023-05-09T03:19:19;101422.94;;;18.40;100.00
51299;BME280;37382;45.192;9.790;2023-05-09T03:21:47;101418.22;;;18.29;100.00
51299;BME280;37382;45.192;9.790;2023-05-09T03:24:14;101415.19;;;18.49;100.00
51299;BME280;37382;45.192;9.790;2023-05-09T03:26:42;101417.00;;;18.55;100.00
51299;BME280;37382;45.192;9.790;2023-05-09T03:29:10;101412.06;;;18.45;100.00
51299;BME280;37382;45.192;9.790;2023-05-09T03:31:38;101411.13;;;18.52;100.00
51299;BME280;37382;45.192;9.790;2023-05-09T03:34:06;101418.28;;;18.22;100.00
51299;BME280;37382;45.192;9.790;2023-05-09T03:36:41;101407.38;;;18.46;100.00
51299;BME280;37382;45.192;9.790;2023-05-09T03:39:11;101414.47;;;18.54;100.00
51299;BME280;37382;45.192;9.790;2023-05-09T03:41:42;101412.75;;;18.41;100.00
51299;BME280;37382;45.192;9.790;2023-05-09T03:44:11;101411.84;;;18.47;100.00
51299;BME280;37382;45.192;9.790;2023-05-09T03:46:38;101419.16;;;18.23;100.00
51299;BME280;37382;45.192;9.790;2023-05-09T03:49:06;101417.94;;;18.19;100.00
51299;BME280;37382;45.192;9.790;2023-05-09T03:51:34;101420.84;;;18.05;100.00
51299;BME280;37382;45.192;9.790;2023-05-09T03:54:05;101422.50;;;18.25;100.00
51299;BME280;37382;45.192;9.790;2023-05-09T03:56:34;101414.41;;;18.11;100.00
51299;BME280;37382;45.192;9.790;2023-05-09T03:59:02;101415.97;;;18.07;100.00
51299;BME280;37382;45.192;9.790;2023-05-09T04:01:29;101420.59;;;18.25;100.00
51299;BME280;37382;45.192;9.790;2023-05-09T04:03:59;101422.84;;;18.47;100.00
51299;BME280;37382;45.192;9.790;2023-05-09T04:06:28;101429.38;;;18.34;100.00
51299;BME280;37382;45.192;9.790;2023-05-09T04:08:57;101424.44;;;18.06;100.00
51299;BME280;37382;45.192;9.790;2023-05-09T04:11:25;101435.06;;;17.84;100.00
51299;BME280;37382;45.192;9.790;2023-05-09T04:13:56;101436.44;;;18.11;100.00
51299;BME280;37382;45.192;9.790;2023-05-09T04:16:28;101446.13;;;18.33;100.00
51299;BME280;37382;45.192;9.790;2023-05-09T04:18:56;101447.44;;;18.30;100.00
51299;BME280;37382;45.192;9.790;2023-05-09T04:21:25;101453.50;;;18.20;100.00
51299;BME280;37382;45.192;9.790;2023-05-09T04:23:55;101454.31;;;18.21;100.00
51299;BME280;37382;45.192;9.790;2023-05-09T04:26:30;101454.94;;;18.41;100.00
51299;BME280;37382;45.192;9.790;2023-05-09T04:28:58;101444.91;;;18.28;100.00
51299;BME280;37382;45.192;9.790;2023-05-09T04:31:26;101446.69;;;18.23;100.00
51299;BME280;37382;45.192;9.790;2023-05-09T04:33:55;101449.66;;;18.40;100.00
51299;BME280;37382;45.192;9.790;2023-05-09T04:36:25;101450.72;;;18.39;100.00
51299;BME280;37382;45.192;9.790;2023-05-09T04:38:56;101445.50;;;18.49;100.00
51299;BME280;37382;45.192;9.790;2023-05-09T04:41:25;101446.47;;;18.55;100.00
51299;BME280;37382;45.192;9.790;2023-05-09T04:43:54;101449.84;;;18.57;100.00
51299;BME280;37382;45.192;9.790;2023-05-09T04:46:24;101445.03;;;18.52;100.00
51299;BME280;37382;45.192;9.790;2023-05-09T04:48:53;101450.72;;;18.39;100.00
51299;BME280;37382;45.192;9.790;2023-05-09T04:51:20;101443.56;;;18.49;100.00
51299;BME280;37382;45.192;9.790;2023-05-09T04:53:50;101450.81;;;18.62;100.00
51299;BME280;37382;45.192;9.790;2023-05-09T04:56:22;101440.91;;;18.73;100.00
51299;BME280;37382;45.192;9.790;2023-05-09T04:58:51;101444.84;;;18.65;100.00
51299;BME280;37382;45.192;9.790;2023-05-09T05:01:19;101444.97;;;18.40;100.00
51299;BME280;37382;45.192;9.790;2023-05-09T05:03:47;101446.31;;;18.49;100.00
51299;BME280;37382;45.192;9.790;2023-05-09T05:06:15;101448.06;;;18.74;100.00
51299;BME280;37382;45.192;9.790;2023-05-09T05:08:42;101450.66;;;18.88;100.00
51299;BME280;37382;45.192;9.790;2023-05-09T05:11:10;101453.81;;;18.91;100.00
51299;BME280;37382;45.192;9.790;2023-05-09T05:13:37;101451.41;;;18.95;100.00
51299;BME280;37382;45.192;9.790;2023-05-09T05:16:05;101452.22;;;18.83;100.00
51299;BME280;37382;45.192;9.790;2023-05-09T05:18:33;101445.78;;;18.90;100.00
51299;BME280;37382;45.192;9.790;2023-05-09T05:21:02;101437.97;;;18.87;100.00
51299;BME280;37382;45.192;9.790;2023-05-09T05:23:31;101429.38;;;18.64;100.00
51299;BME280;37382;45.192;9.790;2023-05-09T05:25:58;101433.78;;;18.54;100.00
51299;BME280;37382;45.192;9.790;2023-05-09T05:28:27;101437.13;;;18.56;100.00
51299;BME280;37382;45.192;9.790;2023-05-09T05:30:55;101438.41;;;18.41;100.00
51299;BME280;37382;45.192;9.790;2023-05-09T05:33:22;101427.91;;;18.31;100.00
51299;BME280;37382;45.192;9.790;2023-05-09T05:35:50;101419.88;;;18.48;100.00
51299;BME280;37382;45.192;9.790;2023-05-09T05:38:18;101427.22;;;18.66;100.00
51299;BME280;37382;45.192;9.790;2023-05-09T05:40:50;101443.25;;;18.58;100.00
51299;BME280;37382;45.192;9.790;2023-05-09T05:43:18;101445.09;;;18.76;100.00
51299;BME280;37382;45.192;9.790;2023-05-09T05:45:46;101451.28;;;18.90;100.00
51299;BME280;37382;45.192;9.790;2023-05-09T05:48:17;101451.69;;;19.05;100.00
51299;BME280;37382;45.192;9.790;2023-05-09T05:50:46;101449.50;;;18.95;100.00
51299;BME280;37382;45.192;9.790;2023-05-09T05:53:17;101458.34;;;18.86;100.00
51299;BME280;37382;45.192;9.790;2023-05-09T05:55:45;101458.53;;;19.14;100.00
51299;BME280;37382;45.192;9.790;2023-05-09T05:58:13;101465.63;;;19.22;100.00
51299;BME280;37382;45.192;9.790;2023-05-09T06:00:40;101461.88;;;19.16;100.00
51299;BME280;37382;45.192;9.790;2023-05-09T06:03:08;101462.63;;;19.47;100.00
51299;BME280;37382;45.192;9.790;2023-05-09T06:05:46;101477.50;;;19.46;100.00
51299;BME280;37382;45.192;9.790;2023-05-09T06:08:15;101475.16;;;19.08;100.00
51299;BME280;37382;45.192;9.790;2023-05-09T06:10:42;101470.53;;;19.44;100.00
51299;BME280;37382;45.192;9.790;2023-05-09T06:13:10;101471.13;;;19.58;100.00
51299;BME280;37382;45.192;9.790;2023-05-09T06:15:41;101473.44;;;19.84;100.00
51299;BME280;37382;45.192;9.790;2023-05-09T06:18:09;101476.31;;;19.66;100.00
51299;BME280;37382;45.192;9.790;2023-05-09T06:20:38;101465.13;;;19.72;100.00
51299;BME280;37382;45.192;9.790;2023-05-09T06:23:05;101466.81;;;19.85;100.00
51299;BME280;37382;45.192;9.790;2023-05-09T06:25:33;101464.06;;;19.85;100.00
51299;BME280;37382;45.192;9.790;2023-05-09T06:28:00;101465.59;;;19.93;100.00
51299;BME280;37382;45.192;9.790;2023-05-09T06:30:28;101463.78;;;20.11;100.00
51299;BME280;37382;45.192;9.790;2023-05-09T06:32:56;101460.31;;;20.03;100.00
51299;BME280;37382;45.192;9.790;2023-05-09T06:35:24;101453.00;;;19.97;100.00
51299;BME280;37382;45.192;9.790;2023-05-09T06:37:52;101454.38;;;19.83;100.00
51299;BME280;37382;45.192;9.790;2023-05-09T06:40:19;101456.13;;;20.01;100.00
51299;BME280;37382;45.192;9.790;2023-05-09T06:42:47;101452.84;;;20.16;100.00
51299;BME280;37382;45.192;9.790;2023-05-09T06:45:15;101456.13;;;20.41;100.00
51299;BME280;37382;45.192;9.790;2023-05-09T06:47:43;101452.31;;;20.59;100.00
51299;BME280;37382;45.192;9.790;2023-05-09T06:50:11;101464.56;;;20.35;100.00
51299;BME280;37382;45.192;9.790;2023-05-09T06:52:38;101459.41;;;20.26;100.00
51299;BME280;37382;45.192;9.790;2023-05-09T06:55:07;101457.34;;;20.34;100.00
51299;BME280;37382;45.192;9.790;2023-05-09T06:57:35;101455.19;;;20.36;100.00
51299;BME280;37382;45.192;9.790;2023-05-09T07:00:03;101450.13;;;20.73;100.00
51299;BME280;37382;45.192;9.790;2023-05-09T07:02:31;101444.09;;;20.93;100.00
51299;BME280;37382;45.192;9.790;2023-05-09T07:04:59;101436.91;;;20.64;100.00
51299;BME280;37382;45.192;9.790;2023-05-09T07:07:27;101428.00;;;20.90;100.00
51299;BME280;37382;45.192;9.790;2023-05-09T07:09:55;101425.47;;;20.72;100.00
51299;BME280;37382;45.192;9.790;2023-05-09T07:12:37;101418.88;;;20.90;100.00
51299;BME280;37382;45.192;9.790;2023-05-09T07:15:05;101417.56;;;20.92;100.00
51299;BME280;37382;45.192;9.790;2023-05-09T07:17:32;101416.84;;;20.68;100.00
51299;BME280;37382;45.192;9.790;2023-05-09T07:20:01;101411.66;;;21.06;100.00
51299;BME280;37382;45.192;9.790;2023-05-09T07:22:30;101414.84;;;21.14;100.00
51299;BME280;37382;45.192;9.790;2023-05-09T07:25:00;101412.66;;;21.50;100.00
51299;BME280;37382;45.192;9.790;2023-05-09T07:27:27;101414.41;;;21.40;100.00
51299;BME280;37382;45.192;9.790;2023-05-09T07:29:55;101420.63;;;21.13;100.00
51299;BME280;37382;45.192;9.790;2023-05-09T07:32:22;101408.91;;;21.06;100.00
51299;BME280;37382;45.192;9.790;2023-05-09T07:34:50;101420.31;;;20.75;100.00
51299;BME280;37382;45.192;9.790;2023-05-09T07:37:17;101417.44;;;20.87;100.00
51299;BME280;37382;45.192;9.790;2023-05-09T07:39:45;101420.22;;;20.87;100.00
51299;BME280;37382;45.192;9.790;2023-05-09T07:42:16;101419.97;;;21.23;100.00
51299;BME280;37382;45.192;9.790;2023-05-09T07:44:43;101413.34;;;21.58;100.00
51299;BME280;37382;45.192;9.790;2023-05-09T07:47:10;101421.38;;;21.59;100.00
51299;BME280;37382;45.192;9.790;2023-05-09T07:49:38;101425.34;;;21.85;100.00
51299;BME280;37382;45.192;9.790;2023-05-09T07:52:06;101420.06;;;21.28;100.00
51299;BME280;37382;45.192;9.790;2023-05-09T07:54:34;101419.31;;;21.15;100.00
51299;BME280;37382;45.192;9.790;2023-05-09T07:57:01;101420.09;;;21.89;100.00
51299;BME280;37382;45.192;9.790;2023-05-09T07:59:29;101416.81;;;22.14;100.00
51299;BME280;37382;45.192;9.790;2023-05-09T08:01:56;101409.47;;;22.03;100.00
51299;BME280;37382;45.192;9.790;2023-05-09T08:04:24;101412.94;;;22.15;100.00
51299;BME280;37382;45.192;9.790;2023-05-09T08:06:52;101410.31;;;22.03;100.00
51299;BME280;37382;45.192;9.790;2023-05-09T08:09:20;101403.38;;;22.01;100.00
51299;BME280;37382;45.192;9.790;2023-05-09T08:11:48;101407.09;;;22.12;100.00
51299;BME280;37382;45.192;9.790;2023-05-09T08:14:15;101400.63;;;22.06;100.00
51299;BME280;37382;45.192;9.790;2023-05-09T08:16:43;101393.56;;;22.37;100.00
51299;BME280;37382;45.192;9.790;2023-05-09T08:19:10;101394.84;;;22.57;100.00
51299;BME280;37382;45.192;9.790;2023-05-09T08:21:38;101400.88;;;22.27;100.00
51299;BME280;37382;45.192;9.790;2023-05-09T08:24:06;101398.78;;;22.12;100.00
51299;BME280;37382;45.192;9.790;2023-05-09T08:26:35;101401.56;;;22.34;100.00
51299;BME280;37382;45.192;9.790;2023-05-09T08:29:03;101387.19;;;22.37;100.00
51299;BME280;37382;45.192;9.790;2023-05-09T08:31:30;101392.78;;;22.74;100.00
51299;BME280;37382;45.192;9.790;2023-05-09T08:33:58;101392.75;;;22.69;100.00
51299;BME280;37382;45.192;9.790;2023-05-09T08:36:25;101394.41;;;23.03;100.00
51299;BME280;37382;45.192;9.790;2023-05-09T08:38:53;101391.81;;;22.91;100.00
51299;BME280;37382;45.192;9.790;2023-05-09T08:41:24;101386.66;;;23.05;100.00
51299;BME280;37382;45.192;9.790;2023-05-09T08:43:54;101393.25;;;22.94;100.00
51299;BME280;37382;45.192;9.790;2023-05-09T08:46:34;101396.50;;;23.60;100.00
51299;BME280;37382;45.192;9.790;2023-05-09T08:49:05;101402.25;;;24.02;100.00
51299;BME280;37382;45.192;9.790;2023-05-09T08:51:35;101399.53;;;23.59;100.00
51299;BME280;37382;45.192;9.790;2023-05-09T08:54:04;101401.78;;;23.67;100.00
51299;BME280;37382;45.192;9.790;2023-05-09T08:56:33;101391.69;;;23.51;100.00
51299;BME280;37382;45.192;9.790;2023-05-09T08:59:02;101400.19;;;23.29;100.00
51299;BME280;37382;45.192;9.790;2023-05-09T09:01:32;101393.00;;;23.00;100.00
51299;BME280;37382;45.192;9.790;2023-05-09T09:04:00;101394.34;;;22.60;100.00
51299;BME280;37382;45.192;9.790;2023-05-09T09:06:28;101388.66;;;22.77;100.00
51299;BME280;37382;45.192;9.790;2023-05-09T09:08:57;101392.59;;;22.81;100.00
51299;BME280;37382;45.192;9.790;2023-05-09T09:11:27;101376.00;;;22.91;100.00
51299;BME280;37382;45.192;9.790;2023-05-09T09:14:00;101370.28;;;22.66;100.00
51299;BME280;37382;45.192;9.790;2023-05-09T09:16:28;101368.56;;;22.60;100.00
51299;BME280;37382;45.192;9.790;2023-05-09T09:18:57;101375.56;;;22.67;100.00
51299;BME280;37382;45.192;9.790;2023-05-09T09:21:25;101368.81;;;22.96;100.00
51299;BME280;37382;45.192;9.790;2023-05-09T09:23:54;101366.69;;;22.70;100.00
51299;BME280;37382;45.192;9.790;2023-05-09T09:26:23;101358.50;;;23.23;100.00
51299;BME280;37382;45.192;9.790;2023-05-09T09:28:51;101361.75;;;23.10;100.00
51299;BME280;37382;45.192;9.790;2023-05-09T09:31:25;101349.75;;;23.47;100.00
51299;BME280;37382;45.192;9.790;2023-05-09T09:34:00;101349.69;;;23.32;100.00
51299;BME280;37382;45.192;9.790;2023-05-09T09:36:29;101348.25;;;23.24;100.00
51299;BME280;37382;45.192;9.790;2023-05-09T09:39:03;101342.13;;;23.22;100.00
51299;BME280;37382;45.192;9.790;2023-05-09T09:41:37;101340.75;;;23.24;100.00
51299;BME280;37382;45.192;9.790;2023-05-09T09:44:06;101340.22;;;23.27;100.00
51299;BME280;37382;45.192;9.790;2023-05-09T09:46:51;101337.41;;;23.22;100.00
51299;BME280;37382;45.192;9.790;2023-05-09T09:49:22;101341.34;;;23.32;100.00
51299;BME280;37382;45.192;9.790;2023-05-09T09:51:50;101332.13;;;23.21;100.00
51299;BME280;37382;45.192;9.790;2023-05-09T09:54:19;101333.47;;;23.13;100.00
51299;BME280;37382;45.192;9.790;2023-05-09T09:56:50;101331.13;;;23.42;100.00
51299;BME280;37382;45.192;9.790;2023-05-09T09:59:24;101325.03;;;23.45;100.00
51299;BME280;37382;45.192;9.790;2023-05-09T10:02:05;101323.84;;;23.31;100.00
51299;BME280;37382;45.192;9.790;2023-05-09T10:04:38;101322.16;;;23.25;100.00
51299;BME280;37382;45.192;9.790;2023-05-09T10:07:09;101321.94;;;23.37;100.00
51299;BME280;37382;45.192;9.790;2023-05-09T10:09:41;101321.19;;;23.52;100.00
51299;BME280;37382;45.192;9.790;2023-05-09T10:12:10;101311.22;;;23.56;100.00
51299;BME280;37382;45.192;9.790;2023-05-09T10:14:40;101313.47;;;23.69;100.00
51299;BME280;37382;45.192;9.790;2023-05-09T10:17:11;101319.22;;;23.42;99.99
51299;BME280;37382;45.192;9.790;2023-05-09T10:19:43;101324.91;;;23.25;100.00
51299;BME280;37382;45.192;9.790;2023-05-09T10:22:14;101309.25;;;23.56;100.00
51299;BME280;37382;45.192;9.790;2023-05-09T10:25:01;101306.84;;;23.75;100.00
51299;BME280;37382;45.192;9.790;2023-05-09T10:27:31;101309.63;;;23.75;100.00
51299;BME280;37382;45.192;9.790;2023-05-09T10:30:08;101303.00;;;23.87;99.03
51299;BME280;37382;45.192;9.790;2023-05-09T10:32:53;101302.72;;;23.93;98.50
51299;BME280;37382;45.192;9.790;2023-05-09T10:35:25;101310.84;;;24.15;98.01
51299;BME280;37382;45.192;9.790;2023-05-09T10:37:55;101306.69;;;24.28;98.71
51299;BME280;37382;45.192;9.790;2023-05-09T10:40:23;101293.06;;;24.27;98.72
51299;BME280;37382;45.192;9.790;2023-05-09T10:42:51;101290.00;;;24.28;91.50
51299;BME280;37382;45.192;9.790;2023-05-09T10:45:20;101296.38;;;24.08;91.50
51299;BME280;37382;45.192;9.790;2023-05-09T10:47:50;101291.94;;;23.97;91.86
51299;BME280;37382;45.192;9.790;2023-05-09T10:50:19;101280.28;;;24.31;95.34
51299;BME280;37382;45.192;9.790;2023-05-09T10:53:03;101266.94;;;24.84;92.97
51299;BME280;37382;45.192;9.790;2023-05-09T10:58:32;101268.25;;;25.08;87.64
51299;BME280;37382;45.192;9.790;2023-05-09T11:01:04;101271.28;;;25.32;88.73
51299;BME280;37382;45.192;9.790;2023-05-09T11:03:57;101259.56;;;25.40;85.79
51299;BME280;37382;45.192;9.790;2023-05-09T11:14:31;101240.72;;;25.71;84.76
51299;BME280;37382;45.192;9.790;2023-05-09T11:17:04;101239.28;;;25.79;84.63
51299;BME280;37382;45.192;9.790;2023-05-09T11:19:37;101232.78;;;25.99;85.01
51299;BME280;37382;45.192;9.790;2023-05-09T11:22:25;101234.72;;;25.99;80.22
51299;BME280;37382;45.192;9.790;2023-05-09T11:25:08;101219.59;;;26.05;79.11
51299;BME280;37382;45.192;9.790;2023-05-09T11:30:09;101211.81;;;26.07;80.98
51299;BME280;37382;45.192;9.790;2023-05-09T11:32:55;101214.66;;;26.31;77.40
51299;BME280;37382;45.192;9.790;2023-05-09T11:35:25;101210.28;;;26.49;77.78
51299;BME280;37382;45.192;9.790;2023-05-09T11:38:20;101210.00;;;26.51;77.03
51299;BME280;37382;45.192;9.790;2023-05-09T11:40:50;101204.53;;;26.40;75.99
51299;BME280;37382;45.192;9.790;2023-05-09T11:43:18;101198.47;;;26.33;74.50
51299;BME280;37382;45.192;9.790;2023-05-09T11:45:45;101185.19;;;26.49;77.21
51299;BME280;37382;45.192;9.790;2023-05-09T11:48:13;101188.47;;;26.56;74.63
51299;BME280;37382;45.192;9.790;2023-05-09T11:50:40;101188.28;;;26.77;73.22
51299;BME280;37382;45.192;9.790;2023-05-09T11:53:09;101192.94;;;27.06;73.00
51299;BME280;37382;45.192;9.790;2023-05-09T11:55:39;101181.53;;;26.83;73.52
51299;BME280;37382;45.192;9.790;2023-05-09T11:58:07;101181.84;;;27.01;72.38
51299;BME280;37382;45.192;9.790;2023-05-09T12:00:43;101170.63;;;27.06;72.51
51299;BME280;37382;45.192;9.790;2023-05-09T12:03:11;101168.66;;;27.06;70.20
51299;BME280;37382;45.192;9.790;2023-05-09T12:05:39;101154.81;;;27.20;68.96
51299;BME280;37382;45.192;9.790;2023-05-09T12:08:07;101158.91;;;27.66;68.22
51299;BME280;37382;45.192;9.790;2023-05-09T12:10:37;101148.75;;;27.89;65.35
51299;BME280;37382;45.192;9.790;2023-05-09T12:13:05;101149.94;;;28.49;65.95
51299;BME280;37382;45.192;9.790;2023-05-09T12:15:36;101140.34;;;28.97;63.41
51299;BME280;37382;45.192;9.790;2023-05-09T12:18:07;101136.38;;;28.42;63.25
51299;BME280;37382;45.192;9.790;2023-05-09T12:20:48;101130.03;;;28.36;63.92
51299;BME280;37382;45.192;9.790;2023-05-09T12:23:18;101135.41;;;28.80;63.16
51299;BME280;37382;45.192;9.790;2023-05-09T12:25:47;101125.75;;;28.86;61.77
51299;BME280;37382;45.192;9.790;2023-05-09T12:28:16;101123.75;;;28.86;62.21
51299;BME280;37382;45.192;9.790;2023-05-09T12:30:44;101112.34;;;28.97;61.87
51299;BME280;37382;45.192;9.790;2023-05-09T12:33:13;101114.81;;;28.29;61.33
51299;BME280;37382;45.192;9.790;2023-05-09T12:35:44;101109.84;;;28.39;61.83
51299;BME280;37382;45.192;9.790;2023-05-09T12:38:14;101105.09;;;28.82;60.55
51299;BME280;37382;45.192;9.790;2023-05-09T12:40:47;101106.97;;;29.37;59.53
51299;BME280;37382;45.192;9.790;2023-05-09T12:43:16;101099.38;;;29.01;60.59
51299;BME280;37382;45.192;9.790;2023-05-09T12:45:44;101104.03;;;28.50;60.31
51299;BME280;37382;45.192;9.790;2023-05-09T12:48:12;101101.69;;;27.96;59.88
51299;BME280;37382;45.192;9.790;2023-05-09T12:50:45;101100.06;;;28.09;60.95
51299;BME280;37382;45.192;9.790;2023-05-09T12:53:25;101093.16;;;28.34;59.85
51299;BME280;37382;45.192;9.790;2023-05-09T12:55:54;101085.16;;;28.97;60.10
51299;BME280;37382;45.192;9.790;2023-05-09T12:58:31;101076.53;;;29.07;58.76
51299;BME280;37382;45.192;9.790;2023-05-09T13:01:02;101071.00;;;28.66;60.01
51299;BME280;37382;45.192;9.790;2023-05-09T13:03:31;101071.97;;;28.61;59.14
51299;BME280;37382;45.192;9.790;2023-05-09T13:06:08;101069.97;;;29.71;57.52
51299;BME280;37382;45.192;9.790;2023-05-09T13:08:40;101071.69;;;29.58;56.93
51299;BME280;37382;45.192;9.790;2023-05-09T13:11:10;101068.97;;;29.90;55.81
51299;BME280;37382;45.192;9.790;2023-05-09T13:13:43;101056.97;;;29.98;55.65
51299;BME280;37382;45.192;9.790;2023-05-09T13:16:11;101050.47;;;30.51;54.97
51299;BME280;37382;45.192;9.790;2023-05-09T13:18:41;101045.06;;;29.70;55.83
51299;BME280;37382;45.192;9.790;2023-05-09T13:21:09;101044.66;;;30.08;57.23
51299;BME280;37382;45.192;9.790;2023-05-09T13:23:37;101045.66;;;30.12;56.45